createdAt,value
2017-08-13T00:01:07.563Z,15.24
2017-08-13T00:03:36.596Z,15.23
2017-08-13T00:06:05.150Z,15.23
2017-08-13T00:08:33.843Z,15.21
2017-08-13T00:11:02.313Z,15.20
2017-08-13T00:13:31.191Z,15.21
2017-08-13T00:15:59.910Z,15.20
2017-08-13T00:18:28.625Z,15.18
2017-08-13T00:20:57.314Z,15.20
2017-08-13T00:23:26.175Z,15.17
2017-08-13T00:25:55.048Z,15.16
2017-08-13T00:28:23.816Z,15.15
2017-08-13T00:30:52.510Z,15.16
2017-08-13T00:33:22.053Z,15.18
2017-08-13T00:35:53.027Z,15.15
2017-08-13T00:38:22.715Z,15.15
2017-08-13T00:40:51.411Z,15.13
2017-08-13T00:43:20.220Z,15.11
2017-08-13T00:45:48.899Z,15.11
2017-08-13T00:48:18.519Z,15.13
2017-08-13T00:50:47.466Z,15.12
2017-08-13T00:53:16.168Z,15.12
2017-08-13T00:55:44.874Z,15.14
2017-08-13T00:58:13.984Z,15.14
2017-08-13T01:00:42.387Z,15.14
2017-08-13T01:03:11.282Z,15.14
2017-08-13T01:05:39.970Z,15.15
2017-08-13T01:08:08.739Z,15.13
2017-08-13T01:10:37.440Z,15.12
2017-08-13T01:13:06.833Z,15.14
2017-08-13T01:15:36.007Z,15.12
2017-08-13T01:18:04.470Z,15.10
2017-08-13T01:20:33.178Z,15.10
2017-08-13T01:23:05.533Z,15.09
2017-08-13T01:25:34.321Z,15.09
2017-08-13T01:28:03.075Z,15.07
2017-08-13T01:30:31.847Z,15.13
2017-08-13T01:33:04.749Z,15.07
2017-08-13T01:35:33.459Z,15.07
2017-08-13T01:38:02.129Z,15.08
2017-08-13T01:40:30.815Z,15.04
2017-08-13T01:43:04.160Z,15.02
2017-08-13T01:45:33.327Z,15.01
2017-08-13T01:48:02.113Z,15.01
2017-08-13T01:50:30.850Z,15.00
2017-08-13T01:53:02.223Z,14.96
2017-08-13T01:55:31.126Z,14.93
2017-08-13T01:57:59.901Z,14.92
2017-08-13T02:00:29.739Z,14.92
2017-08-13T02:02:58.794Z,14.91
2017-08-13T02:05:27.435Z,14.88
2017-08-13T02:07:56.231Z,14.88
2017-08-13T02:10:25.005Z,14.87
2017-08-13T02:12:54.366Z,14.86
2017-08-13T02:15:23.119Z,14.89
2017-08-13T02:17:52.248Z,14.87
2017-08-13T02:20:25.887Z,14.90
2017-08-13T02:22:56.021Z,14.87
2017-08-13T02:25:25.655Z,14.87
2017-08-13T02:27:54.621Z,14.86
2017-08-13T02:30:23.848Z,14.87
2017-08-13T02:32:52.839Z,14.88
2017-08-13T02:35:21.513Z,14.89
2017-08-13T02:37:50.364Z,14.88
2017-08-13T02:40:19.118Z,14.88
2017-08-13T02:42:47.899Z,14.87
2017-08-13T02:45:16.617Z,14.86
2017-08-13T02:47:45.848Z,14.88
2017-08-13T02:50:14.550Z,14.89
2017-08-13T02:52:43.313Z,14.87
2017-08-13T02:55:12.138Z,14.88
2017-08-13T02:57:41.979Z,14.88
2017-08-13T03:00:10.587Z,14.90
2017-08-13T03:02:39.506Z,14.88
2017-08-13T03:05:08.350Z,14.89
2017-08-13T03:07:41.138Z,14.89
2017-08-13T03:10:12.912Z,14.88
2017-08-13T03:12:41.723Z,14.90
2017-08-13T03:15:10.892Z,14.89
2017-08-13T03:17:39.913Z,14.87
2017-08-13T03:20:08.914Z,14.85
2017-08-13T03:22:38.531Z,14.84
2017-08-13T03:25:07.430Z,14.85
2017-08-13T03:27:36.036Z,14.83
2017-08-13T03:30:04.874Z,14.82
2017-08-13T03:32:33.599Z,14.83
2017-08-13T03:35:02.351Z,14.86
2017-08-13T03:37:31.373Z,14.83
2017-08-13T03:40:00.429Z,14.83
2017-08-13T03:42:29.181Z,14.82
2017-08-13T03:44:58.205Z,14.82
2017-08-13T03:47:26.924Z,14.81
2017-08-13T03:49:55.845Z,14.78
2017-08-13T03:52:24.857Z,14.76
2017-08-13T03:54:53.832Z,14.77
2017-08-13T03:57:22.531Z,14.76
2017-08-13T03:59:51.395Z,14.76
2017-08-13T04:02:20.784Z,14.77
2017-08-13T04:04:50.065Z,14.74
2017-08-13T04:07:19.143Z,14.72
2017-08-13T04:09:48.070Z,14.71
2017-08-13T04:12:17.172Z,14.71
2017-08-13T04:14:46.045Z,14.71
2017-08-13T04:17:16.242Z,14.68
2017-08-13T04:19:45.032Z,14.71
2017-08-13T04:22:13.904Z,14.70
2017-08-13T04:24:42.866Z,14.71
2017-08-13T04:27:11.750Z,14.71
2017-08-13T04:29:40.913Z,14.73
2017-08-13T04:32:09.694Z,14.72
2017-08-13T04:34:38.444Z,14.72
2017-08-13T04:37:06.888Z,14.71
2017-08-13T04:39:35.649Z,14.72
2017-08-13T04:42:04.437Z,14.69
2017-08-13T04:44:33.210Z,14.69
2017-08-13T04:47:01.650Z,14.68
2017-08-13T04:49:30.659Z,14.70
2017-08-13T04:51:59.210Z,14.70
2017-08-13T04:54:28.748Z,14.72
2017-08-13T04:56:57.509Z,14.70
2017-08-13T04:59:28.216Z,14.72
2017-08-13T05:01:56.924Z,14.74
2017-08-13T05:04:25.701Z,14.74
2017-08-13T05:06:54.574Z,14.76
2017-08-13T05:09:23.340Z,14.82
2017-08-13T05:11:52.607Z,14.81
2017-08-13T05:14:21.504Z,14.80
2017-08-13T05:16:50.513Z,14.79
2017-08-13T05:19:19.164Z,14.86
2017-08-13T05:21:47.991Z,14.85
2017-08-13T05:24:18.039Z,14.81
2017-08-13T05:26:46.826Z,14.83
2017-08-13T05:29:15.925Z,14.83
2017-08-13T05:31:44.743Z,14.83
2017-08-13T05:34:14.630Z,14.88
2017-08-13T05:36:43.333Z,14.89
2017-08-13T05:39:12.065Z,14.92
2017-08-13T05:41:41.797Z,14.90
2017-08-13T05:44:11.358Z,14.92
2017-08-13T05:46:40.976Z,14.92
2017-08-13T05:49:09.807Z,14.98
2017-08-13T05:51:38.583Z,15.00
2017-08-13T05:54:07.475Z,15.01
2017-08-13T05:56:36.430Z,15.03
2017-08-13T05:59:05.318Z,15.07
2017-08-13T06:01:34.017Z,15.10
2017-08-13T06:04:02.801Z,15.13
2017-08-13T06:06:32.304Z,15.13
2017-08-13T06:09:01.169Z,15.16
2017-08-13T06:11:30.174Z,15.19
2017-08-13T06:13:59.455Z,15.21
2017-08-13T06:16:28.461Z,15.24
2017-08-13T06:18:57.240Z,15.26
2017-08-13T06:21:25.983Z,15.27
2017-08-13T06:23:54.925Z,15.28
2017-08-13T06:26:24.013Z,15.29
2017-08-13T06:28:53.659Z,15.31
2017-08-13T06:31:22.372Z,15.33
2017-08-13T06:33:51.196Z,15.35
2017-08-13T06:36:19.960Z,15.37
2017-08-13T06:38:48.999Z,15.40
2017-08-13T06:41:18.784Z,15.42
2017-08-13T06:43:47.622Z,15.45
2017-08-13T06:46:16.566Z,15.46
2017-08-13T06:48:45.545Z,15.48
2017-08-13T06:51:14.307Z,15.51
2017-08-13T06:53:43.087Z,15.52
2017-08-13T06:56:12.612Z,15.54
2017-08-13T06:58:41.323Z,15.56
2017-08-13T07:01:10.055Z,15.59
2017-08-13T07:03:38.996Z,15.62
2017-08-13T07:06:07.995Z,15.64
2017-08-13T07:08:36.693Z,15.67
2017-08-13T07:11:05.447Z,15.69
2017-08-13T07:13:34.974Z,15.72
2017-08-13T07:16:03.719Z,15.75
2017-08-13T07:18:32.363Z,15.78
2017-08-13T07:21:01.538Z,15.83
2017-08-13T07:23:30.231Z,15.87
2017-08-13T07:25:59.026Z,15.92
2017-08-13T07:28:28.655Z,15.97
2017-08-13T07:30:57.378Z,16.03
2017-08-13T07:33:26.181Z,16.09
2017-08-13T07:35:54.892Z,16.15
2017-08-13T07:38:23.984Z,16.20
2017-08-13T07:40:52.722Z,16.24
2017-08-13T07:43:22.008Z,16.26
2017-08-13T07:45:50.799Z,16.30
2017-08-13T07:48:19.646Z,16.32
2017-08-13T07:50:48.545Z,16.34
2017-08-13T07:53:17.297Z,16.34
2017-08-13T07:55:46.143Z,16.37
2017-08-13T07:58:15.037Z,16.38
2017-08-13T08:00:43.735Z,16.41
2017-08-13T08:03:12.557Z,16.46
2017-08-13T08:05:41.338Z,16.49
2017-08-13T08:08:10.443Z,16.55
2017-08-13T08:10:39.997Z,16.61
2017-08-13T08:13:09.171Z,16.68
2017-08-13T08:15:37.971Z,16.76
2017-08-13T08:18:06.790Z,16.83
2017-08-13T08:20:35.298Z,16.89
2017-08-13T08:23:05.591Z,16.95
2017-08-13T08:25:34.270Z,17.00
2017-08-13T08:28:02.915Z,17.04
2017-08-13T08:30:31.710Z,17.11
2017-08-13T08:33:04.558Z,17.15
2017-08-13T08:35:33.260Z,17.19
2017-08-13T08:38:01.925Z,17.25
2017-08-13T08:40:30.711Z,17.24
2017-08-13T08:43:03.928Z,17.30
2017-08-13T08:45:32.415Z,17.31
2017-08-13T08:48:01.954Z,17.31
2017-08-13T08:50:30.860Z,17.29
2017-08-13T08:53:02.069Z,17.30
2017-08-13T08:55:32.167Z,17.26
2017-08-13T08:58:01.356Z,17.24
2017-08-13T09:00:30.492Z,17.19
2017-08-13T09:03:03.761Z,17.17
2017-08-13T09:05:32.619Z,17.12
2017-08-13T09:08:01.632Z,17.08
2017-08-13T09:10:30.729Z,17.00
2017-08-13T09:13:04.176Z,16.94
2017-08-13T09:15:33.272Z,16.95
2017-08-13T09:18:02.294Z,16.94
2017-08-13T09:20:31.379Z,16.90
2017-08-13T09:23:04.095Z,16.87
2017-08-13T09:25:32.993Z,16.86
2017-08-13T09:28:01.865Z,16.83
2017-08-13T09:30:31.529Z,16.81
2017-08-13T09:33:02.767Z,16.83
2017-08-13T09:35:31.372Z,16.82
2017-08-13T09:38:00.361Z,16.84
2017-08-13T09:40:29.448Z,16.87
2017-08-13T09:42:59.404Z,16.86
2017-08-13T09:45:28.501Z,16.86
2017-08-13T09:47:57.549Z,16.88
2017-08-13T09:50:26.665Z,16.90
2017-08-13T09:52:55.736Z,16.92
2017-08-13T09:55:24.716Z,16.91
2017-08-13T09:57:53.671Z,16.94
2017-08-13T10:00:22.464Z,16.96
2017-08-13T10:02:50.970Z,16.99
2017-08-13T10:05:19.805Z,17.05
2017-08-13T10:07:48.925Z,17.10
2017-08-13T10:10:17.804Z,17.16
2017-08-13T10:12:46.391Z,17.25
2017-08-13T10:15:15.874Z,17.34
2017-08-13T10:17:45.589Z,17.49
2017-08-13T10:20:14.321Z,17.60
2017-08-13T10:22:43.290Z,17.65
2017-08-13T10:25:13.264Z,17.67
2017-08-13T10:27:43.051Z,17.74
2017-08-13T10:30:12.688Z,17.83
2017-08-13T10:32:41.443Z,17.92
2017-08-13T10:35:10.335Z,18.04
2017-08-13T10:37:39.050Z,18.11
2017-08-13T10:40:07.838Z,18.21
2017-08-13T10:42:36.678Z,18.30
2017-08-13T10:45:06.533Z,18.37
2017-08-13T10:47:35.476Z,18.48
2017-08-13T10:50:04.337Z,18.54
2017-08-13T10:52:33.013Z,18.60
2017-08-13T10:55:01.777Z,18.65
2017-08-13T10:57:31.009Z,18.68
2017-08-13T10:59:59.496Z,18.72
2017-08-13T11:02:28.502Z,18.78
2017-08-13T11:04:57.234Z,18.78
2017-08-13T11:07:25.806Z,18.82
2017-08-13T11:09:54.681Z,18.79
2017-08-13T11:12:23.572Z,18.82
2017-08-13T11:14:52.644Z,18.83
2017-08-13T11:17:21.384Z,18.85
2017-08-13T11:19:50.136Z,18.90
2017-08-13T11:22:18.941Z,18.84
2017-08-13T11:24:48.518Z,18.84
2017-08-13T11:27:17.483Z,18.82
2017-08-13T11:29:46.618Z,18.83
2017-08-13T11:32:15.402Z,18.83
2017-08-13T11:34:44.126Z,18.84
2017-08-13T11:37:12.932Z,18.89
2017-08-13T11:39:41.651Z,18.86
2017-08-13T11:42:10.347Z,18.84
2017-08-13T11:44:39.042Z,18.81
2017-08-13T11:47:07.740Z,18.83
2017-08-13T11:49:36.261Z,18.94
2017-08-13T11:52:04.945Z,19.00
2017-08-13T11:54:34.528Z,19.06
2017-08-13T11:57:03.218Z,19.13
2017-08-13T11:59:31.897Z,19.11
2017-08-13T12:02:00.557Z,19.15
2017-08-13T12:04:29.558Z,19.16
2017-08-13T12:06:58.235Z,19.25
2017-08-13T12:09:26.957Z,19.34
2017-08-13T12:11:55.662Z,19.39
2017-08-13T12:14:24.386Z,19.40
2017-08-13T12:16:53.085Z,19.44
2017-08-13T12:19:21.694Z,19.43
2017-08-13T12:21:50.423Z,19.36
2017-08-13T12:24:19.955Z,19.39
2017-08-13T12:26:48.654Z,19.47
2017-08-13T12:29:17.305Z,19.47
2017-08-13T12:31:46.062Z,19.48
2017-08-13T12:34:14.751Z,19.53
2017-08-13T12:36:43.503Z,19.47
2017-08-13T12:39:12.177Z,19.50
2017-08-13T12:41:40.952Z,19.58
2017-08-13T12:44:09.696Z,19.59
2017-08-13T12:46:38.428Z,19.54
2017-08-13T12:49:07.139Z,19.59
2017-08-13T12:51:35.901Z,19.68
2017-08-13T12:54:04.618Z,19.71
2017-08-13T12:56:33.273Z,19.70
2017-08-13T12:59:02.043Z,19.68
2017-08-13T13:01:30.775Z,19.67
2017-08-13T13:03:59.465Z,19.70
2017-08-13T13:06:28.157Z,19.71
2017-08-13T13:08:57.785Z,19.69
2017-08-13T13:11:26.538Z,19.66
2017-08-13T13:13:55.596Z,19.73
2017-08-13T13:16:24.290Z,19.78
2017-08-13T13:18:53.072Z,19.81
2017-08-13T13:21:22.620Z,19.88
2017-08-13T13:23:51.400Z,19.92
2017-08-13T13:26:20.136Z,19.96
2017-08-13T13:28:48.930Z,19.87
2017-08-13T13:31:17.581Z,19.92
2017-08-13T13:33:46.293Z,19.92
2017-08-13T13:36:14.987Z,19.85
2017-08-13T13:38:43.728Z,19.89
2017-08-13T13:41:12.477Z,19.88
2017-08-13T13:43:41.239Z,19.85
2017-08-13T13:46:09.899Z,19.96
2017-08-13T13:48:39.417Z,19.96
2017-08-13T13:51:08.126Z,19.98
2017-08-13T13:53:36.844Z,20.07
2017-08-13T13:56:05.633Z,20.09
2017-08-13T13:58:34.010Z,20.08
2017-08-13T14:01:02.695Z,20.10
2017-08-13T14:03:32.357Z,20.17
2017-08-13T14:06:01.020Z,20.22
2017-08-13T14:08:29.960Z,20.25
2017-08-13T14:10:58.712Z,20.25
2017-08-13T14:13:27.108Z,20.20
2017-08-13T14:15:56.758Z,20.23
2017-08-13T14:18:25.537Z,20.24
2017-08-13T14:20:54.190Z,20.25
2017-08-13T14:23:22.898Z,20.27
2017-08-13T14:25:51.594Z,20.26
2017-08-13T14:28:20.300Z,20.20
2017-08-13T14:30:49.020Z,20.25
2017-08-13T14:33:17.755Z,20.23
2017-08-13T14:35:47.420Z,20.34
2017-08-13T14:38:16.324Z,20.39
2017-08-13T14:40:45.684Z,20.35
2017-08-13T14:43:14.470Z,20.40
2017-08-13T14:45:42.680Z,20.48
2017-08-13T14:48:11.248Z,20.50
2017-08-13T14:50:39.899Z,20.51
2017-08-13T14:53:08.648Z,20.50
2017-08-13T14:55:37.330Z,20.51
2017-08-13T14:58:05.957Z,20.54
2017-08-13T15:00:34.778Z,20.58
2017-08-13T15:03:04.516Z,20.57
2017-08-13T15:05:33.240Z,20.50
2017-08-13T15:08:01.950Z,20.55
2017-08-13T15:10:30.700Z,20.43
2017-08-13T15:13:02.777Z,20.51
2017-08-13T15:15:31.508Z,20.51
2017-08-13T15:18:00.210Z,20.58
2017-08-13T15:20:28.912Z,20.70
2017-08-13T15:22:57.568Z,20.74
2017-08-13T15:25:26.288Z,20.77
2017-08-13T15:27:55.831Z,20.80
2017-08-13T15:30:24.521Z,20.79
2017-08-13T15:32:53.222Z,20.87
2017-08-13T15:35:21.941Z,20.91
2017-08-13T15:37:50.679Z,20.91
2017-08-13T15:40:19.382Z,20.91
2017-08-13T15:42:48.067Z,20.88
2017-08-13T15:45:16.794Z,20.87
2017-08-13T15:47:45.483Z,20.88
2017-08-13T15:50:14.217Z,20.89
2017-08-13T15:52:43.671Z,20.83
2017-08-13T15:55:12.352Z,20.85
2017-08-13T15:57:41.098Z,20.85
2017-08-13T16:00:09.809Z,20.88
2017-08-13T16:02:39.343Z,20.77
2017-08-13T16:05:08.100Z,20.77
2017-08-13T16:07:36.789Z,20.77
2017-08-13T16:10:05.466Z,20.77
2017-08-13T16:12:34.163Z,20.74
2017-08-13T16:15:03.585Z,20.67
2017-08-13T16:17:32.222Z,20.66
2017-08-13T16:20:01.189Z,20.62
2017-08-13T16:22:29.830Z,20.57
2017-08-13T16:24:58.535Z,20.47
2017-08-13T16:27:27.227Z,20.47
2017-08-13T16:29:56.907Z,20.44
2017-08-13T16:32:25.678Z,20.38
2017-08-13T16:34:54.387Z,20.36
2017-08-13T16:37:23.174Z,20.36
2017-08-13T16:39:52.806Z,20.28
2017-08-13T16:42:21.535Z,20.30
2017-08-13T16:44:50.283Z,20.25
2017-08-13T16:47:18.988Z,20.20
2017-08-13T16:49:47.726Z,20.17
2017-08-13T16:52:16.381Z,20.13
2017-08-13T16:54:45.059Z,20.13
2017-08-13T16:57:13.841Z,20.11
2017-08-13T16:59:42.580Z,20.07
2017-08-13T17:02:11.249Z,20.00
2017-08-13T17:04:50.101Z,19.99
2017-08-13T17:07:18.896Z,19.95
2017-08-13T17:09:47.672Z,19.91
2017-08-13T17:12:16.425Z,19.81
2017-08-13T17:14:45.125Z,19.76
2017-08-13T17:17:15.972Z,19.74
2017-08-13T17:19:45.876Z,19.73
2017-08-13T17:22:14.580Z,19.68
2017-08-13T17:24:43.289Z,19.63
2017-08-13T17:27:12.049Z,19.57
2017-08-13T17:29:43.816Z,19.51
2017-08-13T17:32:12.587Z,19.43
2017-08-13T17:34:53.285Z,19.37
2017-08-13T17:37:36.102Z,19.29
2017-08-13T17:40:17.786Z,19.27
2017-08-13T17:42:58.013Z,19.19
2017-08-13T17:45:39.331Z,19.16
2017-08-13T17:48:24.099Z,19.10
2017-08-13T17:51:06.195Z,19.03
2017-08-13T17:53:44.381Z,18.97
2017-08-13T17:56:24.369Z,18.89
2017-08-13T17:59:09.876Z,18.84
2017-08-13T18:01:49.652Z,18.81
2017-08-13T18:04:31.671Z,18.73
2017-08-13T18:07:15.089Z,18.66
2017-08-13T18:09:56.228Z,18.61
2017-08-13T18:12:40.547Z,18.56
2017-08-13T18:15:22.952Z,18.51
2017-08-13T18:18:02.004Z,18.44
2017-08-13T18:20:41.732Z,18.37
2017-08-13T18:23:20.027Z,18.30
2017-08-13T18:26:03.049Z,18.25
2017-08-13T18:28:45.213Z,18.18
2017-08-13T18:31:14.547Z,18.13
2017-08-13T18:33:43.202Z,18.08
2017-08-13T18:36:11.892Z,18.01
2017-08-13T18:38:56.291Z,17.95
2017-08-13T18:41:34.924Z,17.89
2017-08-13T18:44:14.395Z,17.82
2017-08-13T18:46:54.810Z,17.75
2017-08-13T18:49:34.496Z,17.67
2017-08-13T18:52:14.572Z,17.61
2017-08-13T18:54:52.112Z,17.52
2017-08-13T18:57:31.720Z,17.46
2017-08-13T19:00:12.726Z,17.40
2017-08-13T19:02:54.721Z,17.32
2017-08-13T19:05:33.372Z,17.26
2017-08-13T19:08:15.258Z,17.19
2017-08-13T19:10:56.794Z,17.13
2017-08-13T19:13:26.305Z,17.05
2017-08-13T19:16:08.527Z,16.99
2017-08-13T19:18:52.865Z,16.93
2017-08-13T19:21:37.249Z,16.85
2017-08-13T19:24:20.719Z,16.80
2017-08-13T19:26:59.982Z,16.72
2017-08-13T19:29:40.535Z,16.66
2017-08-13T19:32:20.129Z,16.60
2017-08-13T19:35:04.542Z,16.54
2017-08-13T19:37:34.155Z,16.49
2017-08-13T19:40:02.813Z,16.42
2017-08-13T19:42:31.582Z,16.36
2017-08-13T19:45:00.527Z,16.30
2017-08-13T19:47:29.280Z,16.23
2017-08-13T19:49:58.762Z,16.20
2017-08-13T19:52:27.508Z,16.15
2017-08-13T19:54:57.393Z,16.11
2017-08-13T19:57:27.361Z,16.08
2017-08-13T19:59:57.143Z,16.02
2017-08-13T20:02:26.353Z,15.96
2017-08-13T20:04:55.079Z,15.87
2017-08-13T20:07:23.781Z,15.79
2017-08-13T20:09:52.601Z,15.76
2017-08-13T20:12:21.493Z,15.70
2017-08-13T20:14:55.679Z,15.65
2017-08-13T20:17:35.987Z,15.57
2017-08-13T20:20:12.912Z,15.51
2017-08-13T20:22:51.082Z,15.46
2017-08-13T20:25:30.316Z,15.37
2017-08-13T20:28:10.295Z,15.31
2017-08-13T20:30:49.034Z,15.30
2017-08-13T20:33:28.125Z,15.23
2017-08-13T20:36:11.008Z,15.21
2017-08-13T20:38:54.571Z,15.11
2017-08-13T20:41:36.467Z,15.03
2017-08-13T20:44:17.781Z,15.00
2017-08-13T20:47:04.074Z,14.96
2017-08-13T20:49:48.041Z,14.90
2017-08-13T20:52:35.052Z,14.83
2017-08-13T20:55:19.417Z,14.79
2017-08-13T20:58:05.247Z,14.72
2017-08-13T21:00:50.892Z,14.66
2017-08-13T21:03:37.120Z,14.60
2017-08-13T21:06:23.635Z,14.57
2017-08-13T21:09:10.809Z,14.52
2017-08-13T21:11:54.177Z,14.47
2017-08-13T21:14:37.870Z,14.42
2017-08-13T21:17:20.610Z,14.35
2017-08-13T21:20:05.090Z,14.32
2017-08-13T21:22:48.212Z,14.29
2017-08-13T21:25:32.093Z,14.21
2017-08-13T21:28:02.508Z,14.18
2017-08-13T21:30:32.163Z,14.13
2017-08-13T21:33:05.905Z,14.08
2017-08-13T21:35:36.207Z,14.04
2017-08-13T21:38:07.484Z,13.99
2017-08-13T21:40:40.483Z,13.96
2017-08-13T21:43:12.344Z,13.92
2017-08-13T21:45:41.252Z,13.89
2017-08-13T21:48:10.893Z,13.83
2017-08-13T21:50:40.362Z,13.80
2017-08-13T21:53:09.608Z,13.76
2017-08-13T21:55:38.546Z,13.73
2017-08-13T21:58:07.412Z,13.68
2017-08-13T22:00:36.547Z,13.66
2017-08-13T22:03:07.113Z,13.62
2017-08-13T22:05:38.429Z,13.60
2017-08-13T22:08:08.208Z,13.53
2017-08-13T22:10:38.932Z,13.51
2017-08-13T22:13:08.731Z,13.49
2017-08-13T22:15:41.140Z,13.43
2017-08-13T22:18:10.729Z,13.40
2017-08-13T22:20:40.197Z,13.35
2017-08-13T22:23:13.534Z,13.33
2017-08-13T22:25:45.906Z,13.30
2017-08-13T22:28:17.220Z,13.26
2017-08-13T22:30:47.951Z,13.23
2017-08-13T22:33:19.746Z,13.19
2017-08-13T22:35:48.458Z,13.15
2017-08-13T22:38:17.939Z,13.11
2017-08-13T22:40:46.850Z,13.10
2017-08-13T22:43:15.516Z,13.07
2017-08-13T22:45:44.232Z,13.04
2017-08-13T22:48:12.899Z,12.99
2017-08-13T22:50:42.769Z,12.95
2017-08-13T22:53:13.294Z,12.92
2017-08-13T22:55:43.234Z,12.92
2017-08-13T22:58:13.245Z,12.88
2017-08-13T23:00:44.476Z,12.86
2017-08-13T23:03:15.655Z,12.84
2017-08-13T23:05:44.838Z,12.77
2017-08-13T23:08:15.168Z,12.77
2017-08-13T23:10:45.288Z,12.74
2017-08-13T23:13:15.040Z,12.67
2017-08-13T23:15:45.280Z,12.66
2017-08-13T23:18:14.861Z,12.63
2017-08-13T23:20:45.138Z,12.59
2017-08-13T23:23:14.671Z,12.55
2017-08-13T23:25:44.655Z,12.53
2017-08-13T23:28:13.391Z,12.46
2017-08-13T23:30:42.354Z,12.45
2017-08-13T23:33:10.829Z,12.41
2017-08-13T23:35:39.697Z,12.43
2017-08-13T23:38:08.371Z,12.39
2017-08-13T23:40:37.969Z,12.33
2017-08-13T23:43:06.679Z,12.33
2017-08-13T23:45:35.448Z,12.28
2017-08-13T23:48:04.266Z,12.26
2017-08-13T23:50:32.963Z,12.23
2017-08-13T23:53:04.817Z,12.19
2017-08-13T23:55:33.484Z,12.13
2017-08-13T23:58:02.214Z,12.12
